createdAt,value
2019-04-03T00:00:42.116Z,17.30
2019-04-03T00:03:08.522Z,17.40
2019-04-03T00:05:35.390Z,17.70
2019-04-03T00:08:02.601Z,17.80
2019-04-03T00:10:28.901Z,17.70
2019-04-03T00:12:55.286Z,17.80
2019-04-03T00:15:21.892Z,17.80
2019-04-03T00:17:48.294Z,17.70
2019-04-03T00:20:14.820Z,17.70
2019-04-03T00:22:41.229Z,17.70
2019-04-03T00:25:07.783Z,17.80
2019-04-03T00:27:34.184Z,17.80
2019-04-03T00:30:04.400Z,17.80
2019-04-03T00:32:31.307Z,17.80
2019-04-03T00:34:57.697Z,17.80
2019-04-03T00:37:24.182Z,17.70
2019-04-03T00:39:50.482Z,17.80
2019-04-03T00:42:17.980Z,17.80
2019-04-03T00:44:44.275Z,17.80
2019-04-03T00:47:10.566Z,17.70
2019-04-03T00:49:37.108Z,17.70
2019-04-03T00:52:03.675Z,17.70
2019-04-03T00:54:31.154Z,17.80
2019-04-03T00:56:57.973Z,17.80
2019-04-03T00:59:24.713Z,17.80
2019-04-03T01:01:52.511Z,17.70
2019-04-03T01:04:18.891Z,17.70
2019-04-03T01:06:45.295Z,17.70
2019-04-03T01:09:11.659Z,17.60
2019-04-03T01:11:49.050Z,17.60
2019-04-03T01:14:15.487Z,17.60
2019-04-03T01:16:41.894Z,17.70
2019-04-03T01:19:08.402Z,17.70
2019-04-03T01:21:37.278Z,17.60
2019-04-03T01:24:03.836Z,17.50
2019-04-03T01:26:30.340Z,17.50
2019-04-03T01:28:56.746Z,17.50
2019-04-03T01:31:23.012Z,17.50
2019-04-03T01:33:49.318Z,17.50
2019-04-03T01:36:17.132Z,17.60
2019-04-03T01:38:43.805Z,17.50
2019-04-03T01:41:10.072Z,17.50
2019-04-03T01:43:36.846Z,17.50
2019-04-03T01:46:03.296Z,17.50
2019-04-03T01:48:29.616Z,17.40
2019-04-03T01:50:56.047Z,17.50
2019-04-03T01:53:22.482Z,17.50
2019-04-03T01:55:48.890Z,17.50
2019-04-03T01:58:15.186Z,17.40
2019-04-03T02:00:41.610Z,17.40
2019-04-03T02:03:09.772Z,17.30
2019-04-03T02:05:36.213Z,17.30
2019-04-03T02:08:02.777Z,17.20
2019-04-03T02:10:29.349Z,17.10
2019-04-03T02:12:55.737Z,17.10
2019-04-03T02:15:35.289Z,17.20
2019-04-03T02:18:01.869Z,17.10
2019-04-03T02:20:28.339Z,17.00
2019-04-03T02:22:54.762Z,17.10
2019-04-03T02:25:21.304Z,17.00
2019-04-03T02:27:47.696Z,17.00
2019-04-03T02:30:15.000Z,16.90
2019-04-03T02:32:41.925Z,16.90
2019-04-03T02:35:28.160Z,16.90
2019-04-03T02:37:54.681Z,16.90
2019-04-03T02:40:21.229Z,16.80
2019-04-03T02:42:47.963Z,16.80
2019-04-03T02:45:14.471Z,16.80
2019-04-03T02:47:40.992Z,16.90
2019-04-03T02:50:08.996Z,16.80
2019-04-03T02:52:35.510Z,16.80
2019-04-03T02:55:02.571Z,16.70
2019-04-03T02:57:30.499Z,16.70
2019-04-03T02:59:58.788Z,16.80
2019-04-03T03:02:24.971Z,16.70
2019-04-03T03:05:11.350Z,16.60
2019-04-03T03:07:37.888Z,16.70
2019-04-03T03:10:06.301Z,16.70
2019-04-03T03:12:33.386Z,16.80
2019-04-03T03:15:00.473Z,16.70
2019-04-03T03:17:28.987Z,16.60
2019-04-03T03:19:58.494Z,16.50
2019-04-03T03:22:24.961Z,16.50
2019-04-03T03:24:52.996Z,16.50
2019-04-03T03:27:19.561Z,16.50
2019-04-03T03:29:46.170Z,16.50
2019-04-03T03:32:19.961Z,16.50
2019-04-03T03:34:55.123Z,16.50
2019-04-03T03:37:12.255Z,16.50
2019-04-03T03:39:42.521Z,16.60
2019-04-03T03:42:07.268Z,16.60
2019-04-03T03:44:34.245Z,16.60
2019-04-03T03:47:02.694Z,16.50
2019-04-03T03:49:29.868Z,16.50
2019-04-03T03:52:02.641Z,16.50
2019-04-03T03:54:28.263Z,16.40
2019-04-03T03:56:54.873Z,16.40
2019-04-03T03:59:23.154Z,16.40
2019-04-03T04:01:49.678Z,16.30
2019-04-03T04:04:36.358Z,16.40
2019-04-03T04:07:04.482Z,16.40
2019-04-03T04:09:31.403Z,16.40
2019-04-03T04:11:58.003Z,16.30
2019-04-03T04:14:24.950Z,16.50
2019-04-03T04:16:51.589Z,16.50
2019-04-03T04:19:18.178Z,16.30
2019-04-03T04:21:45.214Z,16.20
2019-04-03T04:24:12.295Z,16.20
2019-04-03T04:26:39.105Z,16.20
2019-04-03T04:29:05.607Z,16.20
2019-04-03T04:31:32.019Z,16.30
2019-04-03T04:33:58.478Z,16.20
2019-04-03T04:36:24.944Z,16.10
2019-04-03T04:38:51.397Z,16.10
2019-04-03T04:41:18.872Z,16.10
2019-04-03T04:43:45.330Z,16.10
2019-04-03T04:46:13.315Z,16.10
2019-04-03T04:48:40.066Z,16.10
2019-04-03T04:51:06.344Z,16.00
2019-04-03T04:53:32.691Z,16.00
2019-04-03T04:55:59.077Z,15.80
2019-04-03T04:58:25.416Z,15.80
2019-04-03T05:00:53.686Z,15.90
2019-04-03T05:03:21.877Z,15.90
2019-04-03T05:05:48.356Z,15.90
2019-04-03T05:08:14.783Z,16.00
2019-04-03T05:10:41.123Z,15.90
2019-04-03T05:13:07.508Z,16.00
2019-04-03T05:15:34.136Z,15.80
2019-04-03T05:18:01.192Z,15.90
2019-04-03T05:20:27.833Z,16.00
2019-04-03T05:22:55.383Z,15.90
2019-04-03T05:25:22.496Z,15.90
2019-04-03T05:27:49.023Z,15.80
2019-04-03T05:30:28.977Z,15.80
2019-04-03T05:32:55.555Z,15.90
2019-04-03T05:35:24.233Z,16.00
2019-04-03T05:37:50.932Z,15.90
2019-04-03T05:40:18.165Z,16.10
2019-04-03T05:42:44.837Z,16.00
2019-04-03T05:45:15.476Z,16.00
2019-04-03T05:47:42.878Z,16.00
2019-04-03T05:50:09.461Z,16.00
2019-04-03T05:52:36.063Z,16.10
2019-04-03T05:55:04.287Z,16.00
2019-04-03T05:57:32.597Z,16.10
2019-04-03T06:00:01.923Z,16.10
2019-04-03T06:02:27.273Z,16.10
2019-04-03T06:04:54.709Z,16.10
2019-04-03T06:07:21.077Z,16.10
2019-04-03T06:09:47.402Z,16.20
2019-04-03T06:12:14.565Z,16.10
2019-04-03T06:14:42.035Z,16.10
2019-04-03T06:17:08.445Z,16.10
2019-04-03T06:19:37.621Z,16.10
2019-04-03T06:22:03.417Z,16.10
2019-04-03T06:24:31.654Z,16.10
2019-04-03T06:26:58.075Z,16.10
2019-04-03T06:29:24.534Z,16.00
2019-04-03T06:32:12.731Z,16.10
2019-04-03T06:34:42.481Z,16.30
2019-04-03T06:37:07.386Z,16.10
2019-04-03T06:39:33.892Z,16.20
2019-04-03T06:42:00.255Z,16.20
2019-04-03T06:44:26.641Z,16.20
2019-04-03T06:46:54.681Z,16.20
2019-04-03T06:49:21.124Z,16.30
2019-04-03T06:51:49.348Z,16.40
2019-04-03T06:54:15.676Z,16.30
2019-04-03T06:56:42.154Z,16.40
2019-04-03T06:59:08.528Z,16.40
2019-04-03T07:01:35.026Z,16.50
2019-04-03T07:04:01.502Z,16.50
2019-04-03T07:06:29.423Z,16.70
2019-04-03T07:08:56.030Z,16.70
2019-04-03T07:11:23.962Z,16.70
2019-04-03T07:13:53.220Z,16.70
2019-04-03T07:16:19.387Z,16.80
2019-04-03T07:18:46.066Z,16.80
2019-04-03T07:21:12.713Z,16.70
2019-04-03T07:23:40.333Z,16.80
2019-04-03T07:26:06.758Z,16.90
2019-04-03T07:28:33.143Z,17.00
2019-04-03T07:30:59.659Z,17.00
2019-04-03T07:33:28.456Z,16.90
2019-04-03T07:35:54.252Z,17.00
2019-04-03T07:38:22.216Z,17.00
2019-04-03T07:40:51.066Z,17.10
2019-04-03T07:43:17.181Z,17.10
2019-04-03T07:45:43.982Z,17.10
2019-04-03T07:48:10.617Z,17.10
2019-04-03T07:50:37.233Z,17.20
2019-04-03T07:53:03.730Z,17.20
2019-04-03T07:55:30.130Z,17.30
2019-04-03T07:57:58.026Z,17.30
2019-04-03T08:00:24.921Z,17.40
2019-04-03T08:02:51.322Z,17.40
2019-04-03T08:05:17.821Z,17.40
2019-04-03T08:07:44.246Z,17.40
2019-04-03T08:10:10.961Z,17.30
2019-04-03T08:12:37.350Z,17.30
2019-04-03T08:15:06.360Z,17.30
2019-04-03T08:17:32.643Z,17.30
2019-04-03T08:19:58.979Z,17.40
2019-04-03T08:22:25.721Z,17.50
2019-04-03T08:24:53.891Z,17.60
2019-04-03T08:27:22.704Z,17.60
2019-04-03T08:29:49.178Z,17.70
2019-04-03T08:32:16.277Z,17.80
2019-04-03T08:34:43.614Z,17.70
2019-04-03T08:37:10.860Z,17.70
2019-04-03T08:39:37.265Z,17.80
2019-04-03T08:42:03.653Z,17.80
2019-04-03T08:44:30.203Z,17.80
2019-04-03T08:46:56.608Z,17.80
2019-04-03T08:49:25.687Z,17.90
2019-04-03T08:51:51.106Z,17.90
2019-04-03T08:54:17.478Z,17.90
2019-04-03T08:56:43.806Z,18.00
2019-04-03T08:59:12.692Z,18.00
2019-04-03T09:01:38.507Z,18.10
2019-04-03T09:04:04.882Z,18.20
2019-04-03T09:06:31.444Z,18.20
2019-04-03T09:08:58.701Z,18.20
2019-04-03T09:11:25.647Z,18.30
2019-04-03T09:13:53.017Z,18.50
2019-04-03T09:16:20.232Z,18.60
2019-04-03T09:18:46.540Z,18.80
2019-04-03T09:21:15.099Z,18.90
2019-04-03T09:23:41.242Z,18.90
2019-04-03T09:26:07.604Z,19.00
2019-04-03T09:28:33.957Z,18.90
2019-04-03T09:31:00.368Z,18.90
2019-04-03T09:33:29.229Z,18.80
2019-04-03T09:35:54.921Z,18.90
2019-04-03T09:38:21.262Z,18.80
2019-04-03T09:40:48.695Z,18.90
2019-04-03T09:43:15.740Z,19.10
2019-04-03T09:45:43.037Z,19.20
2019-04-03T09:48:11.634Z,19.30
2019-04-03T09:50:37.836Z,19.30
2019-04-03T09:53:04.594Z,19.20
2019-04-03T09:55:35.430Z,19.10
2019-04-03T09:58:02.406Z,18.90
2019-04-03T10:00:28.210Z,18.80
2019-04-03T10:02:55.279Z,18.90
2019-04-03T10:05:21.661Z,18.90
2019-04-03T10:07:49.357Z,18.80
2019-04-03T10:10:17.021Z,18.80
2019-04-03T10:12:47.607Z,18.70
2019-04-03T10:15:12.946Z,18.70
2019-04-03T10:17:39.693Z,18.80
2019-04-03T10:20:07.494Z,18.70
2019-04-03T10:22:33.788Z,18.70
2019-04-03T10:25:00.679Z,18.80
2019-04-03T10:27:28.318Z,19.00
2019-04-03T10:29:56.509Z,19.10
2019-04-03T10:32:23.017Z,19.20
2019-04-03T10:34:49.363Z,19.40
2019-04-03T10:37:16.093Z,19.40
2019-04-03T10:39:44.391Z,19.50
2019-04-03T10:42:11.344Z,19.60
2019-04-03T10:44:37.805Z,19.80
2019-04-03T10:47:04.735Z,19.60
2019-04-03T10:49:32.446Z,19.60
2019-04-03T10:51:59.472Z,19.80
2019-04-03T10:54:26.252Z,19.70
2019-04-03T10:56:52.579Z,20.00
2019-04-03T10:59:19.102Z,20.20
2019-04-03T11:01:47.178Z,20.10
2019-04-03T11:04:13.656Z,20.30
2019-04-03T11:06:40.158Z,20.50
2019-04-03T11:09:07.635Z,20.70
2019-04-03T11:11:36.908Z,20.90
2019-04-03T11:14:04.852Z,21.10
2019-04-03T11:16:32.582Z,21.00
2019-04-03T11:19:04.469Z,21.20
2019-04-03T11:21:27.054Z,21.10
2019-04-03T11:23:53.667Z,20.90
2019-04-03T11:26:23.601Z,20.60
2019-04-03T11:28:48.473Z,20.60
2019-04-03T11:31:24.557Z,20.40
2019-04-03T11:33:45.613Z,20.60
2019-04-03T11:36:11.450Z,20.90
2019-04-03T11:38:37.750Z,20.90
2019-04-03T11:41:12.388Z,20.70
2019-04-03T11:43:32.623Z,20.50
2019-04-03T11:45:59.183Z,20.50
2019-04-03T11:48:27.225Z,20.50
2019-04-03T11:50:56.333Z,20.40
2019-04-03T11:53:22.730Z,20.20
2019-04-03T11:55:49.202Z,20.20
2019-04-03T11:58:20.194Z,20.50
2019-04-03T12:00:48.506Z,20.60
2019-04-03T12:03:14.908Z,20.70
2019-04-03T12:05:41.625Z,21.00
2019-04-03T12:08:08.515Z,21.40
2019-04-03T12:10:35.607Z,21.50
2019-04-03T12:13:04.640Z,21.60
2019-04-03T12:15:33.766Z,21.60
2019-04-03T12:18:01.139Z,21.60
2019-04-03T12:20:28.378Z,21.40
2019-04-03T12:22:55.718Z,21.20
2019-04-03T12:25:22.656Z,21.10
2019-04-03T12:27:49.967Z,21.00
2019-04-03T12:30:17.459Z,21.00
2019-04-03T12:32:48.772Z,20.90
2019-04-03T12:35:12.392Z,20.90
2019-04-03T12:37:39.272Z,21.10
2019-04-03T12:40:07.235Z,21.30
2019-04-03T12:42:34.204Z,21.30
2019-04-03T12:45:00.502Z,21.50
2019-04-03T12:47:28.330Z,21.80
2019-04-03T12:49:55.198Z,21.40
2019-04-03T12:52:34.847Z,21.10
2019-04-03T12:55:01.898Z,21.10
2019-04-03T12:57:29.131Z,21.00
2019-04-03T12:59:55.822Z,20.80
2019-04-03T13:02:22.485Z,20.40
2019-04-03T13:04:49.074Z,20.20
2019-04-03T13:07:15.539Z,20.20
2019-04-03T13:09:42.170Z,20.20
2019-04-03T13:12:09.598Z,20.20
2019-04-03T13:14:36.423Z,20.10
2019-04-03T13:17:02.936Z,20.20
2019-04-03T13:19:29.673Z,20.00
2019-04-03T13:21:56.203Z,19.90
2019-04-03T13:24:22.839Z,19.80
2019-04-03T13:26:49.310Z,19.80
2019-04-03T13:29:15.736Z,19.90
2019-04-03T13:31:42.308Z,20.00
2019-04-03T13:34:11.835Z,20.30
2019-04-03T13:36:38.928Z,20.40
2019-04-03T13:39:06.464Z,20.40
2019-04-03T13:41:34.311Z,20.70
2019-04-03T13:44:01.508Z,21.10
2019-04-03T13:46:28.852Z,20.90
2019-04-03T13:48:55.328Z,20.50
2019-04-03T13:51:22.279Z,20.20
2019-04-03T13:53:50.781Z,19.90
2019-04-03T13:56:17.607Z,19.80
2019-04-03T13:58:44.240Z,19.80
2019-04-03T14:01:10.985Z,19.70
2019-04-03T14:03:37.669Z,19.60
2019-04-03T14:06:05.480Z,19.50
2019-04-03T14:08:32.411Z,19.40
2019-04-03T14:10:59.023Z,19.40
2019-04-03T14:13:26.265Z,19.20
2019-04-03T14:15:54.812Z,19.20
2019-04-03T14:18:21.445Z,19.10
2019-04-03T14:20:50.358Z,19.10
2019-04-03T14:23:16.819Z,19.20
2019-04-03T14:25:43.484Z,19.30
2019-04-03T14:28:10.550Z,19.30
2019-04-03T14:30:37.299Z,19.40
2019-04-03T14:33:04.234Z,19.40
2019-04-03T14:35:47.287Z,19.50
2019-04-03T14:38:00.231Z,19.70
2019-04-03T14:40:26.905Z,19.90
2019-04-03T14:42:53.407Z,19.90
2019-04-03T14:45:20.031Z,19.70
2019-04-03T14:47:46.502Z,19.90
2019-04-03T14:50:13.824Z,20.00
2019-04-03T14:52:40.652Z,20.00
2019-04-03T14:55:18.034Z,19.80
2019-04-03T14:57:36.104Z,19.60
2019-04-03T15:00:22.044Z,19.40
2019-04-03T15:02:33.340Z,19.20
2019-04-03T15:05:00.181Z,19.00
2019-04-03T15:07:26.713Z,18.90
2019-04-03T15:09:53.168Z,18.80
2019-04-03T15:12:20.040Z,18.70
2019-04-03T15:14:46.515Z,18.50
2019-04-03T15:17:13.226Z,18.30
2019-04-03T15:19:40.191Z,18.30
2019-04-03T15:22:26.908Z,18.30
2019-04-03T15:24:53.838Z,18.30
2019-04-03T15:27:23.736Z,18.20
2019-04-03T15:29:50.539Z,18.10
2019-04-03T15:32:37.611Z,18.10
2019-04-03T15:35:05.310Z,18.10
2019-04-03T15:37:31.942Z,18.10
2019-04-03T15:39:59.196Z,18.10
2019-04-03T15:42:26.124Z,18.20
2019-04-03T15:44:53.297Z,18.10
2019-04-03T15:47:34.300Z,18.10
2019-04-03T15:49:49.982Z,18.00
2019-04-03T15:52:17.055Z,17.90
2019-04-03T15:54:44.135Z,17.90
2019-04-03T15:57:11.103Z,17.80
2019-04-03T15:59:48.313Z,17.80
2019-04-03T16:02:14.947Z,17.60
2019-04-03T16:04:41.924Z,17.60
2019-04-03T16:07:09.300Z,17.50
2019-04-03T16:09:35.997Z,17.30
2019-04-03T16:12:05.326Z,17.00
2019-04-03T16:14:31.138Z,17.00
2019-04-03T16:17:00.563Z,16.90
2019-04-03T16:19:26.202Z,17.10
2019-04-03T16:21:55.672Z,17.20
2019-04-03T16:24:21.571Z,17.00
2019-04-03T16:26:48.334Z,17.00
2019-04-03T16:29:14.682Z,16.80
2019-04-03T16:31:41.176Z,16.80
2019-04-03T16:34:12.029Z,16.90
2019-04-03T16:36:36.121Z,16.70
2019-04-03T16:39:06.051Z,16.70
2019-04-03T16:41:33.709Z,16.60
2019-04-03T16:44:00.393Z,16.50
2019-04-03T16:46:27.783Z,16.60
2019-04-03T16:48:55.049Z,16.60
2019-04-03T16:51:21.592Z,16.40
2019-04-03T16:53:48.430Z,16.30
2019-04-03T16:56:18.278Z,16.30
2019-04-03T16:58:46.400Z,16.40
2019-04-03T17:01:14.443Z,16.30
2019-04-03T17:03:42.104Z,16.30
2019-04-03T17:06:09.018Z,16.30
2019-04-03T17:08:36.185Z,16.20
2019-04-03T17:11:03.164Z,16.30
2019-04-03T17:13:30.161Z,16.30
2019-04-03T17:15:57.336Z,16.30
2019-04-03T17:18:25.441Z,16.50
2019-04-03T17:20:54.604Z,16.50
2019-04-03T17:23:20.582Z,16.40
2019-04-03T17:25:50.667Z,16.40
2019-04-03T17:28:16.614Z,16.20
2019-04-03T17:30:43.226Z,16.20
2019-04-03T17:33:09.617Z,16.20
2019-04-03T17:35:36.476Z,16.40
2019-04-03T17:38:04.607Z,16.20
2019-04-03T17:40:31.354Z,16.20
2019-04-03T17:42:58.593Z,16.20
2019-04-03T17:45:25.181Z,16.20
2019-04-03T17:47:53.873Z,16.10
2019-04-03T17:50:20.206Z,16.00
2019-04-03T17:52:46.922Z,16.00
2019-04-03T17:55:15.214Z,16.00
2019-04-03T17:57:45.385Z,15.80
2019-04-03T18:00:13.284Z,15.80
2019-04-03T18:02:40.053Z,15.90
2019-04-03T18:05:07.313Z,15.80
2019-04-03T18:07:33.939Z,15.80
2019-04-03T18:10:00.650Z,15.80
2019-04-03T18:12:38.084Z,15.80
2019-04-03T18:15:06.869Z,15.80
2019-04-03T18:17:33.423Z,15.80
2019-04-03T18:20:01.235Z,15.80
2019-04-03T18:22:27.784Z,15.90
2019-04-03T18:24:54.698Z,15.90
2019-04-03T18:27:21.530Z,16.00
2019-04-03T18:29:51.406Z,15.90
2019-04-03T18:32:18.094Z,15.90
2019-04-03T18:34:47.765Z,15.90
2019-04-03T18:37:13.038Z,15.80
2019-04-03T18:39:40.519Z,15.70
2019-04-03T18:42:07.818Z,15.70
2019-04-03T18:44:34.514Z,15.80
2019-04-03T18:47:00.938Z,15.60
2019-04-03T18:49:27.628Z,15.80
2019-04-03T18:51:54.285Z,15.80
2019-04-03T18:54:20.957Z,15.80
2019-04-03T18:56:47.541Z,15.80
2019-04-03T18:59:15.464Z,15.60
2019-04-03T19:01:42.288Z,15.70
2019-04-03T19:04:08.768Z,15.80
2019-04-03T19:06:35.358Z,15.70
2019-04-03T19:09:09.835Z,15.70
2019-04-03T19:11:34.349Z,15.70
2019-04-03T19:14:02.167Z,15.60
2019-04-03T19:16:34.246Z,15.60
2019-04-03T19:19:07.528Z,15.60
2019-04-03T19:21:28.703Z,15.60
2019-04-03T19:23:54.474Z,15.40
2019-04-03T19:26:21.158Z,15.50
2019-04-03T19:28:47.717Z,15.50
2019-04-03T19:31:14.647Z,15.40
2019-04-03T19:33:44.691Z,15.40
2019-04-03T19:36:11.358Z,15.50
2019-04-03T19:38:38.819Z,15.50
2019-04-03T19:41:05.990Z,15.50
2019-04-03T19:43:33.043Z,15.50
2019-04-03T19:46:00.655Z,15.50
2019-04-03T19:48:49.037Z,15.50
2019-04-03T19:51:20.561Z,15.60
2019-04-03T19:53:59.099Z,15.60
2019-04-03T19:56:23.997Z,15.70
2019-04-03T19:58:51.147Z,15.70
2019-04-03T20:01:18.955Z,15.60
2019-04-03T20:03:46.850Z,15.50
2019-04-03T20:06:13.999Z,15.50
2019-04-03T20:08:40.778Z,15.50
2019-04-03T20:11:10.991Z,15.50
2019-04-03T20:13:39.503Z,15.60
2019-04-03T20:16:06.903Z,15.50
2019-04-03T20:18:33.566Z,15.40
2019-04-03T20:21:01.991Z,15.60
2019-04-03T20:23:30.293Z,15.40
2019-04-03T20:25:57.958Z,15.30
2019-04-03T20:28:24.945Z,15.40
2019-04-03T20:30:52.432Z,15.40
2019-04-03T20:33:21.545Z,15.50
2019-04-03T20:35:49.684Z,15.70
2019-04-03T20:38:16.989Z,15.70
2019-04-03T20:40:44.238Z,15.50
2019-04-03T20:43:11.831Z,15.40
2019-04-03T20:45:39.443Z,15.40
2019-04-03T20:48:06.116Z,15.40
2019-04-03T20:50:32.718Z,15.30
2019-04-03T20:52:59.284Z,15.40
2019-04-03T20:55:26.817Z,15.40
2019-04-03T20:57:55.967Z,15.40
2019-04-03T21:00:24.021Z,15.40
2019-04-03T21:02:50.591Z,15.40
2019-04-03T21:05:18.600Z,15.30
2019-04-03T21:07:45.982Z,15.40
2019-04-03T21:10:13.407Z,15.40
2019-04-03T21:12:40.092Z,15.40
2019-04-03T21:15:08.890Z,15.40
2019-04-03T21:17:35.171Z,15.40
2019-04-03T21:20:03.898Z,15.50
2019-04-03T21:22:30.430Z,15.40
2019-04-03T21:24:57.019Z,15.30
2019-04-03T21:27:23.663Z,15.40
2019-04-03T21:29:50.209Z,15.40
2019-04-03T21:32:16.831Z,15.40
2019-04-03T21:34:43.626Z,15.40
2019-04-03T21:37:10.292Z,15.40
2019-04-03T21:39:37.195Z,15.30
2019-04-03T21:42:03.877Z,15.40
2019-04-03T21:44:32.028Z,15.40
2019-04-03T21:46:58.915Z,15.40
2019-04-03T21:49:25.769Z,15.30
2019-04-03T21:51:52.458Z,15.40
2019-04-03T21:54:19.250Z,15.30
2019-04-03T21:56:45.931Z,15.30
2019-04-03T21:59:12.571Z,15.30
2019-04-03T22:01:39.231Z,15.30
2019-04-03T22:04:06.007Z,15.20
2019-04-03T22:06:32.439Z,15.20
2019-04-03T22:09:00.449Z,15.10
2019-04-03T22:11:29.288Z,15.10
2019-04-03T22:13:55.846Z,15.10
2019-04-03T22:16:22.591Z,15.20
2019-04-03T22:18:49.087Z,15.20
2019-04-03T22:21:15.402Z,15.10
2019-04-03T22:23:41.802Z,15.10
2019-04-03T22:26:09.796Z,15.10
2019-04-03T22:28:37.925Z,15.10
2019-04-03T22:31:04.558Z,15.10
2019-04-03T22:33:32.354Z,15.10
2019-04-03T22:35:58.901Z,15.10
2019-04-03T22:38:25.630Z,15.10
2019-04-03T22:40:52.308Z,15.20
2019-04-03T22:43:18.722Z,15.10
2019-04-03T22:45:45.212Z,15.20
2019-04-03T22:48:11.732Z,15.10
2019-04-03T22:50:38.318Z,15.10
2019-04-03T22:53:04.775Z,15.10
2019-04-03T22:55:31.385Z,15.20
2019-04-03T22:57:58.225Z,15.10
2019-04-03T23:00:25.862Z,15.00
2019-04-03T23:02:53.040Z,15.00
2019-04-03T23:05:19.647Z,15.00
2019-04-03T23:07:46.210Z,14.90
2019-04-03T23:10:13.883Z,15.00
2019-04-03T23:12:40.513Z,15.10
2019-04-03T23:15:09.663Z,15.00
2019-04-03T23:17:36.650Z,15.00
2019-04-03T23:20:04.686Z,15.00
2019-04-03T23:22:33.123Z,14.90
2019-04-03T23:25:00.174Z,14.80
2019-04-03T23:27:28.797Z,14.90
2019-04-03T23:29:55.440Z,14.90
2019-04-03T23:32:21.962Z,14.90
2019-04-03T23:34:49.585Z,14.80
2019-04-03T23:37:18.024Z,14.80
2019-04-03T23:39:44.470Z,14.80
2019-04-03T23:42:10.768Z,14.80
2019-04-03T23:44:37.196Z,14.80
2019-04-03T23:47:03.711Z,14.80
2019-04-03T23:49:30.036Z,14.70
2019-04-03T23:51:58.654Z,14.70
2019-04-03T23:54:24.678Z,14.80
2019-04-03T23:56:51.108Z,14.80
2019-04-03T23:59:18.794Z,14.80
